Time;durP1;ratioP1;P1;durP2;ratioP2;P2;SDS_P1;SDS_P2;PMS_P1;PMS_P2;Temp;Humidity;BMP_temperature;BMP_pressure;BME280_temperature;BME280_humidity;BME280_pressure;Samples;Min_cycle;Max_cycle;Signal;HPM_P1;HPM_P2
2021/12/03 00:02:24;;;;;;;109.88;98.22;;;2.10;97.30;;;;;;5057481;28;20047;-76
2021/12/03 00:04:51;;;;;;;;;;;2.10;97.30;;;;;;5057901;28;20523;-76
2021/12/03 00:07:18;;;;;;;111.93;99.82;;;2.10;97.30;;;;;;5076032;28;20015;-76
2021/12/03 00:09:47;;;;;;;111.00;99.18;;;2.10;97.40;;;;;;5057675;28;20140;-76
2021/12/03 00:12:14;;;;;;;113.10;100.90;;;2.20;97.40;;;;;;5068232;28;20138;-76
2021/12/03 00:14:41;;;;;;;113.75;101.93;;;2.20;97.50;;;;;;5065413;28;20064;-76
2021/12/03 00:17:08;;;;;;;114.35;102.45;;;2.20;97.40;;;;;;5038797;28;20051;-76
2021/12/03 00:19:35;;;;;;;111.28;99.65;;;2.20;97.50;;;;;;5075247;28;20096;-76
2021/12/03 00:22:02;;;;;;;111.13;99.32;;;2.20;97.50;;;;;;5082521;28;20052;-76
2021/12/03 00:24:29;;;;;;;111.03;99.40;;;2.20;97.50;;;;;;5077838;28;20052;-75
2021/12/03 00:26:57;;;;;;;111.82;100.00;;;2.20;97.50;;;;;;5077591;28;20083;-76
2021/12/03 00:29:24;;;;;;;111.28;99.53;;;2.20;97.60;;;;;;5077211;28;20552;-76
2021/12/03 00:31:51;;;;;;;112.28;100.43;;;2.30;97.70;;;;;;5095098;28;20127;-76
2021/12/03 00:34:18;;;;;;;110.45;98.82;;;2.30;97.70;;;;;;5077269;28;20057;-76
2021/12/03 00:36:45;;;;;;;110.20;98.30;;;2.30;97.60;;;;;;5077142;28;20052;-77
2021/12/03 00:39:12;;;;;;;110.13;98.50;;;2.30;97.70;;;;;;5077277;28;20048;-76
2021/12/03 00:41:53;;;;;;;110.00;98.47;;;2.30;97.70;;;;;;5075171;28;20076;-76
2021/12/03 00:44:24;;;;;;;108.72;97.13;;;2.30;97.70;;;;;;5077530;28;20099;-76
2021/12/03 00:46:51;;;;;;;108.72;97.28;;;2.30;97.70;;;;;;5056424;28;20060;-76
2021/12/03 00:49:18;;;;;;;108.22;97.03;;;2.30;97.60;;;;;;5074933;28;20103;-76
2021/12/03 00:51:45;;;;;;;109.47;97.75;;;2.30;97.70;;;;;;5056657;28;20590;-76
2021/12/03 00:54:13;;;;;;;110.05;98.32;;;2.30;97.70;;;;;;5040238;28;20052;-76
2021/12/03 00:56:41;;;;;;;109.00;97.63;;;2.30;97.70;;;;;;5074910;28;20513;-76
2021/12/03 00:59:08;;;;;;;109.03;97.72;;;2.30;97.70;;;;;;5056464;28;20049;-76
2021/12/03 01:01:38;;;;;;;;;;;2.30;97.60;;;;;;5057090;28;20790;-76
2021/12/03 01:04:06;;;;;;;109.97;98.20;;;2.30;97.60;;;;;;5056750;28;19925;-76
2021/12/03 01:06:33;;;;;;;110.70;99.05;;;2.30;97.60;;;;;;5056610;28;20127;-76
2021/12/03 01:09:00;;;;;;;109.68;98.35;;;2.30;97.60;;;;;;5040095;28;20562;-76
2021/12/03 01:11:27;;;;;;;109.95;98.55;;;2.30;97.50;;;;;;5074836;28;20126;-76
2021/12/03 01:13:57;;;;;;;111.00;99.38;;;2.30;97.50;;;;;;5056344;28;20053;-76
2021/12/03 01:16:24;;;;;;;111.78;99.88;;;2.30;97.50;;;;;;5074516;28;20508;-76
2021/12/03 01:18:53;;;;;;;111.93;100.18;;;2.30;97.50;;;;;;5056686;28;20076;-76
2021/12/03 01:21:20;;;;;;;112.47;100.63;;;2.30;97.50;;;;;;5056399;28;20572;-76
2021/12/03 01:23:48;;;;;;;111.95;100.20;;;2.20;97.50;;;;;;5056124;28;20136;-76
2021/12/03 01:26:16;;;;;;;111.72;100.03;;;2.20;97.50;;;;;;5055944;28;20126;-76
2021/12/03 01:28:44;;;;;;;112.53;100.63;;;2.20;97.60;;;;;;5056190;28;20045;-76
2021/12/03 01:31:11;;;;;;;110.93;99.43;;;2.20;97.60;;;;;;5055985;28;20084;-76
2021/12/03 01:33:38;;;;;;;112.35;100.75;;;2.20;97.60;;;;;;5039984;28;20799;-76
2021/12/03 01:36:07;;;;;;;112.15;100.72;;;2.20;97.60;;;;;;5055860;28;20048;-76
2021/12/03 01:38:34;;;;;;;112.80;101.22;;;2.20;97.60;;;;;;5055791;28;20048;-76
2021/12/03 01:41:01;;;;;;;115.18;103.45;;;2.20;97.50;;;;;;5055918;28;20120;-76
2021/12/03 01:43:28;;;;;;;114.07;102.07;;;2.20;97.50;;;;;;5055728;28;20124;-76
2021/12/03 01:45:59;;;;;;;116.43;104.30;;;2.20;97.40;;;;;;5055519;28;20085;-76
2021/12/03 01:48:27;;;;;;;115.57;103.45;;;2.20;97.40;;;;;;5073938;28;20053;-76
2021/12/03 01:50:55;;;;;;;113.97;102.20;;;2.20;97.40;;;;;;5055848;28;20056;-76
2021/12/03 01:53:27;;;;;;;116.53;104.45;;;2.20;97.30;;;;;;5074081;28;20056;-76
2021/12/03 01:55:56;;;;;;;116.70;104.13;;;2.20;97.40;;;;;;5055667;28;20053;-76
2021/12/03 01:58:23;;;;;;;118.22;105.72;;;2.20;97.40;;;;;;5055690;28;20045;-76
2021/12/03 02:00:53;;;;;;;116.97;104.53;;;2.10;97.40;;;;;;5055603;28;20139;-76
2021/12/03 02:03:22;;;;;;;116.55;104.38;;;2.10;97.40;;;;;;5073952;28;20088;-76
2021/12/03 02:05:50;;;;;;;118.85;106.22;;;2.10;97.40;;;;;;5055285;28;20479;-76
2021/12/03 02:08:17;;;;;;;118.20;106.00;;;2.10;97.50;;;;;;5073417;28;20056;-76
2021/12/03 02:10:47;;;;;;;118.55;106.30;;;2.10;97.50;;;;;;5055678;28;20442;-76
2021/12/03 02:13:15;;;;;;;119.97;107.30;;;2.10;97.40;;;;;;5054365;28;20099;-76
2021/12/03 02:15:43;;;;;;;118.13;105.95;;;2.10;97.50;;;;;;5055296;28;20127;-76
2021/12/03 02:18:12;;;;;;;117.50;105.28;;;2.10;97.50;;;;;;5055545;28;20470;-76
2021/12/03 02:20:43;;;;;;;118.70;106.70;;;2.10;97.50;;;;;;5074093;28;20072;-76
2021/12/03 02:23:10;;;;;;;118.35;106.20;;;2.10;97.50;;;;;;5075503;28;20058;-76
2021/12/03 02:25:37;;;;;;;117.80;105.40;;;2.10;97.50;;;;;;5058791;28;20135;-76
2021/12/03 02:28:05;;;;;;;118.00;105.05;;;2.10;97.50;;;;;;5075617;28;20074;-76
2021/12/03 02:30:32;;;;;;;;;;;2.10;97.50;;;;;;5075812;28;20057;-76
2021/12/03 02:32:59;;;;;;;118.18;105.63;;;2.10;97.50;;;;;;5092849;28;19931;-76
2021/12/03 02:35:26;;;;;;;115.97;104.00;;;2.10;97.50;;;;;;5075320;28;20136;-76
2021/12/03 02:37:55;;;;;;;;;;;2.10;97.50;;;;;;5059429;28;20127;-76
2021/12/03 02:40:23;;;;;;;117.50;105.22;;;2.10;97.50;;;;;;5093100;28;19924;-76
2021/12/03 02:42:52;;;;;;;118.05;105.63;;;2.10;97.50;;;;;;5075270;28;20051;-76
2021/12/03 02:45:20;;;;;;;119.57;107.05;;;2.10;97.40;;;;;;5058988;28;20056;-76
2021/12/03 02:47:48;;;;;;;118.03;105.93;;;2.10;97.40;;;;;;5093757;28;20136;-76
2021/12/03 02:50:17;;;;;;;118.50;106.00;;;2.10;97.40;;;;;;5093324;28;20049;-76
2021/12/03 02:52:52;;;;;;;118.45;106.03;;;2.10;97.50;;;;;;5093811;28;20140;-76
2021/12/03 02:55:21;;;;;;;116.90;104.80;;;2.10;97.50;;;;;;5076018;28;20055;-76
2021/12/03 02:57:48;;;;;;;117.20;105.30;;;2.10;97.50;;;;;;5078628;28;20111;-76
2021/12/03 03:00:17;;;;;;;117.90;105.53;;;2.10;97.50;;;;;;5078688;28;20131;-76
2021/12/03 03:02:45;;;;;;;117.70;105.57;;;2.10;97.50;;;;;;5078438;28;20595;-77
2021/12/03 03:05:14;;;;;;;118.70;106.45;;;2.10;97.50;;;;;;5078355;28;20107;-76
2021/12/03 03:07:42;;;;;;;117.10;105.07;;;2.10;97.50;;;;;;5078383;28;20132;-76
2021/12/03 03:10:14;;;;;;;117.00;104.90;;;2.10;97.50;;;;;;5078410;28;20106;-76
2021/12/03 03:12:44;;;;;;;115.63;103.72;;;2.10;97.40;;;;;;5078560;28;20582;-76
2021/12/03 03:15:12;;;;;;;116.95;104.65;;;2.10;97.50;;;;;;5077943;28;20163;-76
2021/12/03 03:17:40;;;;;;;117.70;105.70;;;2.10;97.50;;;;;;5078259;28;20051;-76
2021/12/03 03:20:09;;;;;;;118.03;105.82;;;2.10;97.50;;;;;;5061268;28;20072;-76
2021/12/03 03:22:37;;;;;;;116.68;104.40;;;2.10;97.50;;;;;;5078289;28;20111;-76
2021/12/03 03:25:07;;;;;;;117.22;104.93;;;2.20;97.50;;;;;;5061381;28;20399;-76
2021/12/03 03:27:34;;;;;;;116.70;104.90;;;2.10;97.50;;;;;;5078236;28;20078;-76
2021/12/03 03:30:03;;;;;;;118.60;106.70;;;2.10;97.50;;;;;;5077990;28;20098;-76
2021/12/03 03:32:30;;;;;;;117.32;105.30;;;2.10;97.70;;;;;;5078358;28;20127;-76
2021/12/03 03:34:57;;;;;;;116.95;104.90;;;2.10;97.50;;;;;;5078207;28;20082;-76
2021/12/03 03:37:24;;;;;;;117.43;105.47;;;2.10;97.50;;;;;;5078361;28;20129;-76
2021/12/03 03:39:51;;;;;;;118.00;105.88;;;2.10;97.50;;;;;;5078204;28;20588;-76
2021/12/03 03:42:18;;;;;;;117.80;105.63;;;2.10;97.50;;;;;;5077831;28;20044;-76
2021/12/03 03:44:45;;;;;;;117.00;105.07;;;2.10;97.50;;;;;;5077917;28;20052;-76
2021/12/03 03:47:14;;;;;;;;;;;2.10;97.50;;;;;;5096693;28;20079;-76
2021/12/03 03:49:41;;;;;;;116.88;104.68;;;2.10;97.50;;;;;;5078243;28;19924;-76
2021/12/03 03:52:09;;;;;;;115.93;104.25;;;2.10;97.50;;;;;;5077599;28;20052;-76
2021/12/03 03:54:36;;;;;;;116.55;104.43;;;2.10;97.50;;;;;;5096208;28;20139;-76
2021/12/03 03:57:04;;;;;;;120.82;108.20;;;2.10;97.50;;;;;;5077904;28;20041;-76
2021/12/03 03:59:31;;;;;;;117.65;105.80;;;2.10;97.50;;;;;;5077727;28;20056;-76
2021/12/03 04:01:59;;;;;;;116.50;104.53;;;2.10;97.40;;;;;;5095977;28;20048;-76
2021/12/03 04:04:27;;;;;;;;;;;2.10;97.40;;;;;;5078384;28;20041;-76
2021/12/03 04:06:54;;;;;;;116.78;104.35;;;2.10;97.40;;;;;;5094027;28;19932;-76
2021/12/03 04:09:21;;;;;;;116.20;104.28;;;2.10;97.40;;;;;;5095633;28;20049;-76
2021/12/03 04:11:48;;;;;;;116.63;104.50;;;2.10;97.30;;;;;;5077705;28;20063;-76
2021/12/03 04:14:16;;;;;;;117.45;104.90;;;2.10;97.40;;;;;;5077627;28;20060;-76
2021/12/03 04:16:43;;;;;;;116.63;104.50;;;2.10;97.50;;;;;;5095518;28;20052;-76
2021/12/03 04:19:10;;;;;;;115.40;103.60;;;2.10;97.30;;;;;;5077339;28;20051;-76
2021/12/03 04:25:38;;;;;;;114.63;102.60;;;2.10;97.30;;;;;;5095941;27;19924;-76
2021/12/03 04:28:05;;;;;;;115.50;103.50;;;2.10;97.30;;;;;;5095019;28;20517;-76
2021/12/03 04:30:33;;;;;;;116.20;104.03;;;2.10;97.30;;;;;;5077409;28;20058;-76
2021/12/03 04:33:00;;;;;;;;;;;2.10;97.30;;;;;;5077898;28;20056;-76
2021/12/03 04:35:27;;;;;;;;;;;2.10;97.20;;;;;;5096310;28;20455;-76
2021/12/03 04:37:55;;;;;;;114.95;102.90;;;2.10;97.30;;;;;;5095743;28;20257;-76
2021/12/03 04:40:23;;;;;;;116.57;104.28;;;2.10;97.30;;;;;;5077246;28;20049;-76
2021/12/03 04:42:52;;;;;;;115.70;103.53;;;2.00;97.30;;;;;;5076955;28;20052;-76
2021/12/03 04:45:23;;;;;;;116.32;104.15;;;2.10;97.30;;;;;;5076960;28;20080;-76
2021/12/03 04:47:51;;;;;;;117.60;105.38;;;2.00;97.30;;;;;;5077158;28;20120;-76
2021/12/03 04:50:20;;;;;;;117.32;104.95;;;2.10;97.50;;;;;;5076962;28;20846;-76
2021/12/03 04:52:48;;;;;;;117.40;105.38;;;2.00;97.30;;;;;;5076912;28;20054;-76
2021/12/03 04:55:16;;;;;;;117.22;105.00;;;2.10;97.40;;;;;;5076731;28;20052;-76
2021/12/03 04:57:43;;;;;;;117.45;105.38;;;2.10;97.40;;;;;;5076988;28;20114;-76
2021/12/03 05:00:17;;;;;;;119.15;106.80;;;2.10;97.40;;;;;;5077069;28;20132;-76
2021/12/03 05:02:45;;;;;;;119.93;107.70;;;2.10;97.30;;;;;;5077170;28;20487;-76
2021/12/03 05:05:12;;;;;;;115.53;103.70;;;2.10;97.30;;;;;;5076500;28;20053;-76
2021/12/03 05:07:58;;;;;;;116.63;104.60;;;2.10;97.30;;;;;;5076733;28;20528;-76
2021/12/03 05:10:26;;;;;;;117.88;105.78;;;2.10;97.30;;;;;;5076886;28;20445;-76
2021/12/03 05:12:57;;;;;;;117.40;105.22;;;2.10;97.30;;;;;;5076507;28;20599;-76
2021/12/03 05:15:26;;;;;;;116.53;104.57;;;2.10;97.30;;;;;;5076274;28;20054;-76
2021/12/03 05:17:53;;;;;;;117.60;105.20;;;2.10;97.30;;;;;;5076510;28;20048;-76
2021/12/03 05:20:20;;;;;;;117.97;105.50;;;2.10;97.20;;;;;;5075557;28;20095;-76
2021/12/03 05:22:47;;;;;;;118.13;105.72;;;2.10;97.20;;;;;;5076562;28;20048;-76
2021/12/03 05:25:14;;;;;;;118.78;106.30;;;2.10;97.10;;;;;;5076240;28;20056;-76
2021/12/03 05:27:41;;;;;;;119.13;106.85;;;2.10;97.10;;;;;;5076511;28;20094;-76
2021/12/03 05:30:10;;;;;;;117.65;105.25;;;2.10;97.20;;;;;;5094168;28;20198;-76
2021/12/03 05:32:39;;;;;;;118.32;106.03;;;2.10;97.20;;;;;;5074161;28;20135;-76
2021/12/03 05:35:09;;;;;;;119.72;107.28;;;2.10;97.20;;;;;;5063980;28;20131;-76
2021/12/03 05:37:36;;;;;;;120.57;107.95;;;2.10;97.20;;;;;;5056278;28;20147;-76
2021/12/03 05:40:05;;;;;;;121.80;108.80;;;2.10;97.20;;;;;;5056142;28;20589;-76
2021/12/03 05:42:33;;;;;;;118.72;106.30;;;2.10;97.30;;;;;;5056255;28;20605;-76
2021/12/03 05:45:00;;;;;;;;;;;2.10;97.30;;;;;;5056701;28;20059;-76
2021/12/03 05:47:27;;;;;;;;;;;2.10;97.30;;;;;;5056752;28;19983;-76
2021/12/03 05:49:55;;;;;;;119.10;106.50;;;2.10;97.30;;;;;;5073390;28;19947;-76
2021/12/03 05:52:22;;;;;;;119.15;106.22;;;2.10;97.30;;;;;;5056050;28;20057;-75
2021/12/03 05:54:49;;;;;;;119.63;106.93;;;2.20;97.40;;;;;;5039191;28;20060;-76
2021/12/03 05:57:16;;;;;;;118.78;106.38;;;2.10;97.40;;;;;;5055938;28;20045;-76
2021/12/03 05:59:43;;;;;;;118.28;106.03;;;2.20;97.50;;;;;;5056140;28;20154;-76
2021/12/03 06:02:10;;;;;;;120.03;107.70;;;2.20;97.50;;;;;;5039185;28;20082;-76
2021/12/03 06:04:37;;;;;;;119.50;106.97;;;2.20;97.50;;;;;;5055422;28;20049;-76
2021/12/03 06:07:06;;;;;;;119.30;106.63;;;2.20;97.50;;;;;;5055714;28;20136;-76
2021/12/03 06:09:34;;;;;;;121.40;108.63;;;2.20;97.60;;;;;;5055516;28;20091;-76
2021/12/03 06:12:02;;;;;;;120.05;107.15;;;2.20;97.60;;;;;;5055687;28;20447;-75
2021/12/03 06:14:29;;;;;;;118.60;105.88;;;2.20;97.60;;;;;;5055531;28;20060;-76
2021/12/03 06:16:57;;;;;;;117.78;105.43;;;2.30;97.60;;;;;;5073620;28;20051;-76
2021/12/03 06:19:24;;;;;;;118.40;106.00;;;2.20;97.60;;;;;;5055583;28;20049;-76
2021/12/03 06:21:51;;;;;;;;;;;2.20;97.80;;;;;;5055939;28;20075;-76
2021/12/03 06:24:20;;;;;;;;;;;2.30;97.70;;;;;;5089825;28;19931;-76
2021/12/03 06:26:47;;;;;;;117.30;104.85;;;2.30;97.70;;;;;;5073441;28;19992;-76
2021/12/03 06:29:14;;;;;;;121.13;108.18;;;2.30;97.60;;;;;;5055442;28;20055;-76
2021/12/03 06:31:41;;;;;;;119.65;106.88;;;2.30;97.70;;;;;;5058311;28;20049;-76
2021/12/03 06:34:08;;;;;;;119.43;106.35;;;2.30;97.60;;;;;;5077326;28;20083;-76
2021/12/03 06:36:35;;;;;;;120.20;107.88;;;2.40;97.60;;;;;;5058652;28;20132;-75
2021/12/03 06:39:02;;;;;;;118.22;105.93;;;2.40;97.60;;;;;;5059011;28;20148;-76
2021/12/03 06:41:31;;;;;;;;;;;2.40;97.50;;;;;;5059018;28;20057;-76
2021/12/03 06:43:58;;;;;;;116.53;104.20;;;2.40;97.60;;;;;;5092761;28;19929;-76
2021/12/03 06:46:25;;;;;;;118.40;105.80;;;2.40;97.60;;;;;;5058462;28;20053;-76
2021/12/03 06:48:52;;;;;;;;;;;2.40;97.60;;;;;;5059030;28;20053;-76
2021/12/03 06:51:19;;;;;;;117.55;105.07;;;2.40;97.80;;;;;;5076954;28;20028;-76
2021/12/03 06:53:55;;;;;;;120.47;107.57;;;2.40;97.70;;;;;;5076736;28;20053;-76
2021/12/03 06:56:23;;;;;;;116.85;104.28;;;2.50;97.80;;;;;;5058232;28;20045;-76
2021/12/03 06:58:52;;;;;;;117.10;104.68;;;2.50;97.90;;;;;;5058579;28;20103;-76
2021/12/03 07:01:19;;;;;;;118.05;105.63;;;2.50;97.90;;;;;;5058452;28;20131;-76
2021/12/03 07:03:46;;;;;;;117.65;105.55;;;2.50;98.00;;;;;;5058650;28;20053;-76
2021/12/03 07:06:13;;;;;;;118.07;105.05;;;2.60;98.00;;;;;;5058101;28;20140;-76
2021/12/03 07:08:40;;;;;;;118.28;105.78;;;2.60;97.90;;;;;;5058121;28;20140;-76
2021/12/03 07:11:07;;;;;;;117.65;105.07;;;2.60;98.00;;;;;;5058067;28;20128;-76
2021/12/03 07:13:34;;;;;;;;;;;2.70;98.10;;;;;;5058622;28;20049;-76
2021/12/03 07:16:05;;;;;;;119.13;106.60;;;2.70;98.20;;;;;;5076361;28;19929;-76
2021/12/03 07:18:32;;;;;;;121.28;108.55;;;2.70;98.10;;;;;;5058306;28;20499;-76
2021/12/03 07:20:59;;;;;;;119.15;105.95;;;2.70;98.10;;;;;;5075976;28;20053;-76
2021/12/03 07:23:26;;;;;;;118.18;105.45;;;2.70;98.10;;;;;;5057960;28;20060;-76
2021/12/03 07:25:53;;;;;;;121.10;108.55;;;2.70;98.20;;;;;;5057663;28;20056;-76
2021/12/03 07:28:20;;;;;;;117.03;104.88;;;2.70;98.20;;;;;;5058123;28;20053;-76
2021/12/03 07:30:47;;;;;;;;;;;2.70;98.30;;;;;;5058135;28;20117;-76
2021/12/03 07:33:17;;;;;;;;;;;2.70;98.30;;;;;;5079632;28;19929;-76
2021/12/03 07:35:46;;;;;;;117.32;104.55;;;2.70;98.20;;;;;;5058039;28;19932;-76
2021/12/03 07:39:10;;;;;;;118.57;106.03;;;2.70;98.30;;;;;;5058015;28;20053;-76
2021/12/03 07:41:40;;;;;;;118.13;105.55;;;2.70;98.30;;;;;;5040541;28;20089;-76
2021/12/03 07:44:08;;;;;;;117.55;105.25;;;2.80;98.40;;;;;;5041575;28;20045;-76
2021/12/03 07:46:36;;;;;;;118.20;105.82;;;2.80;98.40;;;;;;5057744;28;20055;-77
2021/12/03 07:49:04;;;;;;;118.40;106.03;;;2.80;98.40;;;;;;5062282;28;20554;-76
2021/12/03 07:51:32;;;;;;;119.05;106.45;;;2.80;98.40;;;;;;5066162;28;20161;-77
2021/12/03 07:53:58;;;;;;;;;;;2.80;98.40;;;;;;5075685;28;20057;-77
2021/12/03 07:56:25;;;;;;;;;;;2.80;98.30;;;;;;5073108;28;20391;-80
2021/12/03 07:58:52;;;;;;;121.18;108.30;;;2.80;98.30;;;;;;5073992;28;20015;-80
2021/12/03 08:01:19;;;;;;;121.75;108.57;;;2.80;98.30;;;;;;5073357;28;20120;-80
2021/12/03 08:03:47;;;;;;;125.43;111.93;;;2.80;98.30;;;;;;5057718;28;20132;-78
2021/12/03 08:06:15;;;;;;;;;;;2.90;98.30;;;;;;5071951;28;20076;-78
2021/12/03 08:08:42;;;;;;;123.05;109.55;;;2.90;98.30;;;;;;5076730;28;19974;-73
2021/12/03 08:11:09;;;;;;;126.07;112.55;;;2.90;98.20;;;;;;5090501;28;20052;-76
2021/12/03 08:13:36;;;;;;;;;;;2.90;98.30;;;;;;5074055;28;20514;-78
2021/12/03 08:16:04;;;;;;;;;;;2.90;98.30;;;;;;4975336;28;21724;-78
2021/12/03 08:18:31;;;;;;;125.18;111.70;;;2.90;98.30;;;;;;5051292;28;20019;-78
2021/12/03 08:20:59;;;;;;;122.80;109.75;;;2.90;98.30;;;;;;5066710;28;20051;-77
2021/12/03 08:23:27;;;;;;;;;;;2.90;98.30;;;;;;5076051;28;20126;-78
2021/12/03 08:25:54;;;;;;;133.20;118.47;;;2.90;98.40;;;;;;5057458;28;19929;-77
2021/12/03 08:28:21;;;;;;;128.00;113.65;;;3.00;98.40;;;;;;5077319;28;20187;-78
2021/12/03 08:30:48;;;;;;;;;;;3.00;98.30;;;;;;5075928;28;20490;-78
2021/12/03 08:33:15;;;;;;;128.15;114.15;;;3.00;98.30;;;;;;5077296;28;19938;-77
2021/12/03 08:35:42;;;;;;;126.65;112.75;;;3.00;98.20;;;;;;5064529;28;20044;-78
2021/12/03 08:38:10;;;;;;;132.77;118.63;;;3.00;98.30;;;;;;5074996;28;20088;-78
2021/12/03 08:40:38;;;;;;;;;;;3.00;98.30;;;;;;5069717;28;20455;-78
2021/12/03 08:43:05;;;;;;;133.82;118.20;;;3.00;98.30;;;;;;5068258;28;19931;-76
2021/12/03 08:45:34;;;;;;;133.38;118.88;;;3.00;98.30;;;;;;5072908;28;20662;-80
2021/12/03 08:48:02;;;;;;;135.27;120.72;;;3.00;98.40;;;;;;5073332;28;20049;-76
2021/12/03 08:50:33;;;;;;;134.68;119.88;;;3.10;98.40;;;;;;5076306;28;20060;-75
2021/12/03 08:53:13;;;;;;;129.48;113.45;;;3.10;98.30;;;;;;5070014;28;20055;-75
2021/12/03 08:55:42;;;;;;;132.30;117.75;;;3.10;98.40;;;;;;5049795;28;20051;-76
2021/12/03 08:58:10;;;;;;;133.65;119.05;;;3.10;98.30;;;;;;5069637;28;20052;-77
2021/12/03 09:00:38;;;;;;;127.50;113.57;;;3.20;98.30;;;;;;5085119;28;20124;-76
2021/12/03 09:03:06;;;;;;;134.25;119.78;;;3.10;98.30;;;;;;5085191;28;20141;-76
2021/12/03 09:05:34;;;;;;;133.15;118.20;;;3.10;98.40;;;;;;5085040;28;20049;-75
2021/12/03 09:08:02;;;;;;;131.05;116.90;;;3.20;98.30;;;;;;5087134;28;20053;-75
2021/12/03 09:10:29;;;;;;;134.82;120.18;;;3.20;98.30;;;;;;5073962;28;20059;-74
2021/12/03 09:12:57;;;;;;;136.65;120.85;;;3.10;98.40;;;;;;5075664;28;20114;-77
2021/12/03 09:15:29;;;;;;;134.30;119.75;;;3.20;98.60;;;;;;5075867;28;20068;-76
2021/12/03 09:18:06;;;;;;;135.00;117.18;;;3.20;98.50;;;;;;5073041;28;20041;-78
2021/12/03 09:20:46;;;;;;;134.55;119.90;;;3.20;98.50;;;;;;5073902;28;20114;-79
2021/12/03 09:23:17;;;;;;;139.57;124.40;;;3.20;98.60;;;;;;5063428;28;20048;-75
2021/12/03 09:25:50;;;;;;;131.18;117.07;;;3.30;98.50;;;;;;5069130;28;20053;-75
2021/12/03 09:28:18;;;;;;;136.75;121.70;;;3.30;98.50;;;;;;5072138;28;20048;-80
2021/12/03 09:30:47;;;;;;;134.38;118.63;;;3.30;98.40;;;;;;5071746;28;20061;-77
2021/12/03 09:33:40;;;;;;;130.77;114.47;;;3.30;98.40;;;;;;5056569;28;20095;-77
2021/12/03 09:36:09;;;;;;;129.73;115.43;;;3.30;98.50;;;;;;5085609;28;20053;-77
2021/12/03 09:38:36;;;;;;;129.98;115.72;;;3.30;98.50;;;;;;5076299;28;20041;-78
2021/12/03 09:41:06;;;;;;;;;;;3.40;98.40;;;;;;5073158;28;20084;-77
2021/12/03 09:43:36;;;;;;;134.95;119.13;;;3.40;98.50;;;;;;5092823;28;20609;-77
2021/12/03 09:46:09;;;;;;;129.93;115.60;;;3.40;98.40;;;;;;5074633;28;20138;-77
2021/12/03 09:48:51;;;;;;;126.97;110.97;;;3.40;98.40;;;;;;5075205;28;20143;-77
2021/12/03 09:51:18;;;;;;;133.75;115.47;;;3.50;98.30;;;;;;5088344;28;20048;-77
2021/12/03 09:54:11;;;;;;;132.63;117.03;;;3.50;98.30;;;;;;5072241;28;20056;-77
2021/12/03 09:56:38;;;;;;;127.95;113.32;;;3.50;98.30;;;;;;5073545;28;20051;-76
2021/12/03 10:01:55;;;;;;;127.75;111.30;;;3.60;98.30;;;;;;5052660;28;20076;-76
2021/12/03 10:04:38;;;;;;;129.90;115.78;;;3.60;98.30;;;;;;5073749;28;20135;-75
2021/12/03 10:10:37;;;;;;;134.73;115.38;;;3.60;98.30;;;;;;4997536;28;20058;-81
2021/12/03 10:13:11;;;;;;;125.90;111.70;;;3.70;98.20;;;;;;5088274;28;20045;-80
2021/12/03 10:15:58;;;;;;;129.20;110.95;;;3.70;98.10;;;;;;5074934;28;20080;-81
2021/12/03 10:18:39;;;;;;;122.00;104.90;;;3.70;98.00;;;;;;5058809;28;20510;-82
2021/12/03 10:21:14;;;;;;;119.05;106.22;;;3.80;97.80;;;;;;5058832;28;20055;-79
2021/12/03 10:26:58;;;;;;;118.82;104.70;;;3.90;97.40;;;;;;5055038;28;20045;-79
2021/12/03 10:29:33;;;;;;;122.60;106.13;;;3.90;97.40;;;;;;5064460;28;20051;-83
2021/12/03 10:43:50;;;;;;;123.38;105.03;;;4.00;96.80;;;;;;5034018;28;20060;-81
2021/12/03 10:46:27;;;;;;;119.03;104.78;;;4.00;97.00;;;;;;5075046;28;20128;-80
2021/12/03 10:49:05;;;;;;;119.05;105.93;;;4.00;96.90;;;;;;5075362;28;20388;-83
2021/12/03 10:51:44;;;;;;;121.22;102.05;;;4.00;96.80;;;;;;5058891;28;20126;-85
2021/12/03 10:54:19;;;;;;;118.72;103.38;;;4.00;96.80;;;;;;5075021;28;20080;-86
2021/12/03 10:57:17;;;;;;;115.82;103.28;;;4.10;96.60;;;;;;5075380;28;20055;-84
2021/12/03 11:06:05;;;;;;;125.00;106.23;;;4.10;96.40;;;;;;5073561;28;20053;-81
2021/12/03 11:39:38;;;;;;;117.97;102.35;;;4.20;95.60;;;;;;5066181;28;20048;-75
2021/12/03 14:00:27;;;;;;;114.63;102.28;;;4.40;96.90;;;;;;5106635;28;20111;-74
2021/12/03 14:07:08;;;;;;;114.80;102.72;;;4.50;97.00;;;;;;5131490;27;20131;-78
2021/12/03 14:41:19;;;;;;;118.25;105.57;;;4.80;96.50;;;;;;5081698;28;20136;-81
2021/12/03 14:44:05;;;;;;;114.97;102.95;;;4.80;96.60;;;;;;5103307;27;20114;-78
2021/12/03 14:47:00;;;;;;;115.22;102.70;;;4.80;96.60;;;;;;5073354;28;20052;-79
2021/12/03 14:52:18;;;;;;;113.57;101.78;;;4.90;96.50;;;;;;5028246;27;20057;-80
2021/12/03 14:55:00;;;;;;;115.13;103.18;;;4.80;96.50;;;;;;5072146;28;20076;-80
2021/12/03 15:00:26;;;;;;;113.75;101.88;;;4.90;96.40;;;;;;5069611;28;20057;-80
2021/12/03 15:03:09;;;;;;;112.55;100.72;;;4.90;96.60;;;;;;5074334;28;20626;-80
2021/12/03 15:08:23;;;;;;;113.80;101.82;;;4.90;96.80;;;;;;5051864;28;20061;-83
2021/12/03 15:22:05;;;;;;;114.28;102.55;;;5.00;96.60;;;;;;5013674;28;20046;-78
2021/12/03 15:24:41;;;;;;;112.88;101.15;;;5.00;96.70;;;;;;5065858;28;20053;-78
2021/12/03 15:27:34;;;;;;;115.13;103.43;;;5.00;96.80;;;;;;5066176;28;20056;-80
2021/12/03 15:32:54;;;;;;;117.25;105.15;;;5.10;96.80;;;;;;5068874;28;20079;-87
2021/12/03 15:35:23;;;;;;;117.43;105.32;;;5.10;96.70;;;;;;5062469;28;20049;-87
2021/12/03 15:41:16;;;;;;;117.22;105.38;;;5.10;96.80;;;;;;5092963;28;20053;-86
2021/12/03 15:52:41;;;;;;;113.27;101.70;;;5.10;96.90;;;;;;5066614;28;20132;-88
2021/12/03 15:55:35;;;;;;;113.47;102.05;;;5.10;96.90;;;;;;5093644;28;20057;-89
2021/12/03 16:04:01;;;;;;;114.43;102.65;;;5.20;97.00;;;;;;5101740;28;20067;-88
2021/12/03 16:06:41;;;;;;;114.97;103.15;;;5.20;97.00;;;;;;5061154;28;20055;-87
2021/12/03 16:09:29;;;;;;;115.13;103.28;;;5.20;97.00;;;;;;5077930;28;20545;-87
2021/12/03 16:12:01;;;;;;;115.78;104.13;;;5.20;97.10;;;;;;5063190;28;20134;-85
2021/12/03 16:17:41;;;;;;;116.75;104.75;;;5.20;97.10;;;;;;5059604;28;20056;-88
2021/12/03 16:26:22;;;;;;;114.30;102.60;;;5.20;97.10;;;;;;5054169;28;20053;-89
2021/12/03 16:53:02;;;;;;;117.07;105.40;;;5.20;97.60;;;;;;5074531;28;20092;-89
2021/12/03 16:55:30;;;;;;;120.10;108.20;;;5.10;97.60;;;;;;5058402;28;20053;-81
2021/12/03 16:58:26;;;;;;;122.13;110.03;;;5.20;97.70;;;;;;5084700;28;20080;-90
2021/12/03 17:04:12;;;;;;;121.72;109.55;;;5.20;97.90;;;;;;5066711;28;20532;-88
2021/12/03 17:10:00;;;;;;;;;;;5.20;97.90;;;;;;5086920;28;20056;-85
2021/12/03 17:15:50;;;;;;;122.70;110.45;;;5.20;98.00;;;;;;5033939;28;20084;-85
2021/12/03 17:18:54;;;;;;;124.20;111.25;;;5.20;98.00;;;;;;5070493;28;20099;-87
2021/12/03 17:46:46;;;;;;;127.38;114.72;;;5.20;98.70;;;;;;5050268;28;20083;-84
2021/12/03 17:49:29;;;;;;;128.77;116.07;;;5.30;98.50;;;;;;5052392;28;20053;-89
2021/12/03 17:52:09;;;;;;;126.32;113.68;;;5.30;98.60;;;;;;5068182;28;20041;-86
2021/12/03 17:54:56;;;;;;;127.45;114.97;;;5.20;98.70;;;;;;5037458;28;20136;-86
2021/12/03 17:57:31;;;;;;;132.15;119.15;;;5.20;98.70;;;;;;5059371;28;20132;-86
2021/12/03 18:00:00;;;;;;;127.30;114.70;;;5.20;98.70;;;;;;5061484;28;20059;-82
2021/12/03 18:02:35;;;;;;;132.80;119.75;;;5.20;98.70;;;;;;5043006;28;20049;-82
2021/12/03 18:05:19;;;;;;;132.18;119.07;;;5.20;98.80;;;;;;5041821;28;20129;-81
2021/12/03 18:07:59;;;;;;;128.07;115.10;;;5.20;98.80;;;;;;5052329;28;20051;-85
2021/12/03 18:16:30;;;;;;;131.57;118.72;;;5.20;98.80;;;;;;5029534;28;21278;-84
2021/12/03 18:19:30;;;;;;;132.10;119.15;;;5.20;98.90;;;;;;5004066;28;20068;-86
2021/12/03 18:44:06;;;;;;;133.30;120.07;;;5.30;99.00;;;;;;5089290;28;20404;-81
2021/12/03 18:49:47;;;;;;;134.50;121.18;;;5.30;99.00;;;;;;5010848;28;20053;-84
2021/12/03 18:52:27;;;;;;;133.98;120.50;;;5.30;99.00;;;;;;5065279;28;20136;-83
2021/12/03 18:55:00;;;;;;;135.15;121.82;;;5.20;99.10;;;;;;5061723;28;20067;-85
2021/12/03 18:57:30;;;;;;;138.35;124.65;;;5.30;99.10;;;;;;5045264;28;20049;-81
2021/12/03 19:00:00;;;;;;;133.73;120.22;;;5.30;99.00;;;;;;5061210;28;20065;-85
2021/12/03 19:02:29;;;;;;;136.68;123.30;;;5.30;99.00;;;;;;5059309;28;20064;-84